Portada
METAR-TAF:

METAR-TAF

Aeroports :

Gíger, Algèria

latitud: 36-53N, longitud: 005-49E, altitud: 2 m

Observació

L'informe es va fer fa 55 minuts, a les 19:00 UTC
Vent 3 kt del Nord-Est
Temperatura 28°C
Humitat 70%
Pressió 1011 hPa
Visibilitat 10 km o més
sense núvols per sota de 1500 mi sense presència de cumulonimbus.

METAR: DAAV 231900Z 04003KT CAVOK 28/22 Q1011

Hora: 20:55 (19:55 UTC)

Pronòstic

L'informe es va fer fa 2 hores i 55 minuts, a les 17:00 UTC
Pronòstic vàlid del 23 a les 18 UTC al 24 a les 18 UTC
Vent 8 kt del Nord-Oest
Visibilitat 10 km o més
sense núvols per sota de 1500 mi sense presència de cumulonimbus.
Probabilitat 30% :
Temporalment
l' 23 a les 18 UTC al 23 a les 20 UTC
Vent 10 kt del Nord/Nord-Est

TAF: DAAV 231700Z 2318/2418 32008KT CAVOK PROB30 TEMPO 2318/2320 02010KT

Observacions i pronòstics meteorològics de més de 4000 aeroports (METAR i TAF).

Les estacions disponibles són els punts grocs i vermells al mapa.

Posi el ratolí al punt desitjat per veure el nom de l'estació.

Feu clic per veure les observacions i els pronòstics meteorològics.

Per canviar el mapa: feu clic els botons verds amb una creu de color negre per apropar; al botó verd amb un guió per allunyar la imatge; o en les fletxes verdes per a mapes adjacents.


METAR-TAF: